sensor_id;sensor_type;location;lat;lon;timestamp;P1;durP1;ratioP1;P2;durP2;ratioP2
68284;SDS011;55114;52.052;5.238;2022-11-15T00:00:49;37.95;;;13.50;;
68284;SDS011;55114;52.052;5.238;2022-11-15T00:03:16;41.83;;;13.73;;
68284;SDS011;55114;52.052;5.238;2022-11-15T00:05:44;46.15;;;13.07;;
68284;SDS011;55114;52.052;5.238;2022-11-15T00:08:11;42.63;;;13.15;;
68284;SDS011;55114;52.052;5.238;2022-11-15T00:10:38;44.55;;;13.80;;
68284;SDS011;55114;52.052;5.238;2022-11-15T00:13:09;41.28;;;13.57;;
68284;SDS011;55114;52.052;5.238;2022-11-15T00:15:39;44.35;;;14.18;;
68284;SDS011;55114;52.052;5.238;2022-11-15T00:18:16;41.15;;;13.70;;
68284;SDS011;55114;52.052;5.238;2022-11-15T00:20:44;47.70;;;14.25;;
68284;SDS011;55114;52.052;5.238;2022-11-15T00:23:11;54.03;;;14.48;;
68284;SDS011;55114;52.052;5.238;2022-11-15T00:25:38;51.03;;;14.25;;
68284;SDS011;55114;52.052;5.238;2022-11-15T00:28:05;51.22;;;14.02;;
68284;SDS011;55114;52.052;5.238;2022-11-15T00:30:32;46.15;;;13.52;;
68284;SDS011;55114;52.052;5.238;2022-11-15T00:33:04;57.60;;;15.25;;
68284;SDS011;55114;52.052;5.238;2022-11-15T00:35:32;56.70;;;14.27;;
68284;SDS011;55114;52.052;5.238;2022-11-15T00:38:00;47.20;;;14.77;;
68284;SDS011;55114;52.052;5.238;2022-11-15T00:40:27;55.30;;;15.20;;
68284;SDS011;55114;52.052;5.238;2022-11-15T00:42:54;55.05;;;14.77;;
68284;SDS011;55114;52.052;5.238;2022-11-15T00:45:22;53.13;;;15.18;;
68284;SDS011;55114;52.052;5.238;2022-11-15T00:47:49;53.95;;;15.07;;
68284;SDS011;55114;52.052;5.238;2022-11-15T00:50:16;53.17;;;14.75;;
68284;SDS011;55114;52.052;5.238;2022-11-15T00:52:44;57.80;;;14.98;;
68284;SDS011;55114;52.052;5.238;2022-11-15T00:55:18;45.00;;;13.52;;
68284;SDS011;55114;52.052;5.238;2022-11-15T00:57:45;56.95;;;15.00;;
68284;SDS011;55114;52.052;5.238;2022-11-15T01:00:13;55.95;;;14.98;;
68284;SDS011;55114;52.052;5.238;2022-11-15T01:02:40;56.65;;;14.30;;
68284;SDS011;55114;52.052;5.238;2022-11-15T01:05:07;50.65;;;15.30;;
68284;SDS011;55114;52.052;5.238;2022-11-15T01:07:35;61.03;;;14.55;;
68284;SDS011;55114;52.052;5.238;2022-11-15T01:10:02;60.85;;;15.88;;
68284;SDS011;55114;52.052;5.238;2022-11-15T01:12:30;51.50;;;15.60;;
68284;SDS011;55114;52.052;5.238;2022-11-15T01:14:57;57.33;;;15.32;;
68284;SDS011;55114;52.052;5.238;2022-11-15T01:17:24;59.70;;;16.83;;
68284;SDS011;55114;52.052;5.238;2022-11-15T01:19:51;56.50;;;16.10;;
68284;SDS011;55114;52.052;5.238;2022-11-15T01:22:18;62.13;;;15.70;;
68284;SDS011;55114;52.052;5.238;2022-11-15T01:24:45;59.20;;;15.75;;
68284;SDS011;55114;52.052;5.238;2022-11-15T01:27:12;57.08;;;15.50;;
68284;SDS011;55114;52.052;5.238;2022-11-15T01:29:39;58.97;;;15.75;;
68284;SDS011;55114;52.052;5.238;2022-11-15T01:32:07;63.28;;;16.00;;
68284;SDS011;55114;52.052;5.238;2022-11-15T01:34:34;67.28;;;15.77;;
68284;SDS011;55114;52.052;5.238;2022-11-15T01:37:01;61.97;;;16.27;;
68284;SDS011;55114;52.052;5.238;2022-11-15T01:39:28;63.65;;;17.63;;
68284;SDS011;55114;52.052;5.238;2022-11-15T01:41:56;65.93;;;16.23;;
68284;SDS011;55114;52.052;5.238;2022-11-15T01:47:19;53.95;;;15.48;;
68284;SDS011;55114;52.052;5.238;2022-11-15T01:49:51;56.15;;;15.63;;
68284;SDS011;55114;52.052;5.238;2022-11-15T01:52:20;67.67;;;16.63;;
68284;SDS011;55114;52.052;5.238;2022-11-15T01:54:49;62.67;;;16.08;;
68284;SDS011;55114;52.052;5.238;2022-11-15T01:57:17;57.15;;;16.55;;
68284;SDS011;55114;52.052;5.238;2022-11-15T01:59:44;60.97;;;15.85;;
68284;SDS011;55114;52.052;5.238;2022-11-15T02:02:12;57.55;;;15.48;;
68284;SDS011;55114;52.052;5.238;2022-11-15T02:04:43;60.03;;;16.97;;
68284;SDS011;55114;52.052;5.238;2022-11-15T02:07:12;61.45;;;16.55;;
68284;SDS011;55114;52.052;5.238;2022-11-15T02:09:40;67.95;;;17.52;;
68284;SDS011;55114;52.052;5.238;2022-11-15T02:12:07;53.85;;;15.52;;
68284;SDS011;55114;52.052;5.238;2022-11-15T02:14:37;59.20;;;16.88;;
68284;SDS011;55114;52.052;5.238;2022-11-15T02:22:37;57.92;;;16.77;;
68284;SDS011;55114;52.052;5.238;2022-11-15T02:30:44;56.40;;;16.08;;
68284;SDS011;55114;52.052;5.238;2022-11-15T02:35:57;56.50;;;16.83;;
68284;SDS011;55114;52.052;5.238;2022-11-15T02:38:36;53.95;;;16.52;;
68284;SDS011;55114;52.052;5.238;2022-11-15T02:41:11;53.50;;;16.67;;
68284;SDS011;55114;52.052;5.238;2022-11-15T02:46:36;48.35;;;16.15;;
68284;SDS011;55114;52.052;5.238;2022-11-15T02:49:24;48.95;;;15.93;;
68284;SDS011;55114;52.052;5.238;2022-11-15T02:51:52;53.00;;;15.32;;
68284;SDS011;55114;52.052;5.238;2022-11-15T02:54:28;48.05;;;15.95;;
68284;SDS011;55114;52.052;5.238;2022-11-15T02:56:58;52.80;;;16.00;;
68284;SDS011;55114;52.052;5.238;2022-11-15T03:02:18;44.33;;;15.50;;
68284;SDS011;55114;52.052;5.238;2022-11-15T03:04:53;50.15;;;15.27;;
68284;SDS011;55114;52.052;5.238;2022-11-15T03:07:24;44.88;;;15.93;;
68284;SDS011;55114;52.052;5.238;2022-11-15T03:09:54;45.23;;;15.27;;
68284;SDS011;55114;52.052;5.238;2022-11-15T03:12:25;44.75;;;15.40;;
68284;SDS011;55114;52.052;5.238;2022-11-15T03:14:57;46.22;;;16.23;;
68284;SDS011;55114;52.052;5.238;2022-11-15T03:17:28;48.20;;;14.52;;
68284;SDS011;55114;52.052;5.238;2022-11-15T03:19:57;50.90;;;16.52;;
68284;SDS011;55114;52.052;5.238;2022-11-15T03:22:26;48.27;;;15.90;;
68284;SDS011;55114;52.052;5.238;2022-11-15T03:24:56;52.70;;;17.02;;
68284;SDS011;55114;52.052;5.238;2022-11-15T03:27:25;46.85;;;15.85;;
68284;SDS011;55114;52.052;5.238;2022-11-15T03:30:01;46.13;;;16.15;;
68284;SDS011;55114;52.052;5.238;2022-11-15T03:32:29;45.75;;;15.65;;
68284;SDS011;55114;52.052;5.238;2022-11-15T03:34:58;53.30;;;16.20;;
68284;SDS011;55114;52.052;5.238;2022-11-15T03:37:35;56.10;;;16.27;;
68284;SDS011;55114;52.052;5.238;2022-11-15T03:40:04;49.65;;;15.85;;
68284;SDS011;55114;52.052;5.238;2022-11-15T03:45:19;56.17;;;16.77;;
68284;SDS011;55114;52.052;5.238;2022-11-15T03:47:49;54.03;;;16.60;;
68284;SDS011;55114;52.052;5.238;2022-11-15T03:50:19;51.10;;;16.70;;
68284;SDS011;55114;52.052;5.238;2022-11-15T03:52:47;52.30;;;17.42;;
68284;SDS011;55114;52.052;5.238;2022-11-15T03:55:16;55.65;;;17.27;;
68284;SDS011;55114;52.052;5.238;2022-11-15T03:57:44;55.65;;;17.33;;
68284;SDS011;55114;52.052;5.238;2022-11-15T04:00:11;60.47;;;17.13;;
68284;SDS011;55114;52.052;5.238;2022-11-15T04:02:38;54.47;;;16.33;;
68284;SDS011;55114;52.052;5.238;2022-11-15T04:05:06;55.72;;;17.17;;
68284;SDS011;55114;52.052;5.238;2022-11-15T04:07:33;48.88;;;16.30;;
68284;SDS011;55114;52.052;5.238;2022-11-15T04:10:00;48.97;;;15.43;;
68284;SDS011;55114;52.052;5.238;2022-11-15T04:12:35;54.17;;;17.57;;
68284;SDS011;55114;52.052;5.238;2022-11-15T04:15:04;48.38;;;16.42;;
68284;SDS011;55114;52.052;5.238;2022-11-15T04:17:35;43.88;;;15.63;;
68284;SDS011;55114;52.052;5.238;2022-11-15T04:20:07;50.95;;;16.77;;
68284;SDS011;55114;52.052;5.238;2022-11-15T04:22:54;44.85;;;15.75;;
68284;SDS011;55114;52.052;5.238;2022-11-15T04:25:40;46.53;;;15.73;;
68284;SDS011;55114;52.052;5.238;2022-11-15T04:28:08;44.30;;;15.95;;
68284;SDS011;55114;52.052;5.238;2022-11-15T04:30:35;49.70;;;15.82;;
68284;SDS011;55114;52.052;5.238;2022-11-15T04:33:03;44.47;;;15.40;;
68284;SDS011;55114;52.052;5.238;2022-11-15T04:35:30;47.17;;;16.00;;
68284;SDS011;55114;52.052;5.238;2022-11-15T04:37:57;50.87;;;15.83;;
68284;SDS011;55114;52.052;5.238;2022-11-15T04:40:25;44.70;;;15.68;;
68284;SDS011;55114;52.052;5.238;2022-11-15T04:42:52;45.45;;;15.93;;
68284;SDS011;55114;52.052;5.238;2022-11-15T04:45:23;47.55;;;15.05;;
68284;SDS011;55114;52.052;5.238;2022-11-15T04:47:50;43.25;;;15.50;;
68284;SDS011;55114;52.052;5.238;2022-11-15T04:50:17;39.70;;;14.53;;
68284;SDS011;55114;52.052;5.238;2022-11-15T04:52:50;39.00;;;14.80;;
68284;SDS011;55114;52.052;5.238;2022-11-15T04:55:17;38.90;;;14.77;;
68284;SDS011;55114;52.052;5.238;2022-11-15T04:57:44;38.38;;;14.18;;
68284;SDS011;55114;52.052;5.238;2022-11-15T05:00:12;35.53;;;13.98;;
68284;SDS011;55114;52.052;5.238;2022-11-15T05:02:40;38.97;;;13.60;;
68284;SDS011;55114;52.052;5.238;2022-11-15T05:05:25;37.83;;;13.65;;
68284;SDS011;55114;52.052;5.238;2022-11-15T05:07:53;34.22;;;13.02;;
68284;SDS011;55114;52.052;5.238;2022-11-15T05:10:20;39.05;;;13.45;;
68284;SDS011;55114;52.052;5.238;2022-11-15T05:12:47;39.35;;;13.85;;
68284;SDS011;55114;52.052;5.238;2022-11-15T05:15:14;35.97;;;13.10;;
68284;SDS011;55114;52.052;5.238;2022-11-15T05:17:41;38.92;;;13.82;;
68284;SDS011;55114;52.052;5.238;2022-11-15T05:20:08;33.65;;;13.25;;
68284;SDS011;55114;52.052;5.238;2022-11-15T05:22:36;34.97;;;13.32;;
68284;SDS011;55114;52.052;5.238;2022-11-15T05:25:03;35.88;;;13.68;;
68284;SDS011;55114;52.052;5.238;2022-11-15T05:27:30;31.90;;;12.73;;
68284;SDS011;55114;52.052;5.238;2022-11-15T05:29:57;33.85;;;13.43;;
68284;SDS011;55114;52.052;5.238;2022-11-15T05:32:25;38.15;;;14.00;;
68284;SDS011;55114;52.052;5.238;2022-11-15T05:34:52;35.40;;;13.25;;
68284;SDS011;55114;52.052;5.238;2022-11-15T05:37:19;37.33;;;13.88;;
68284;SDS011;55114;52.052;5.238;2022-11-15T05:39:46;32.53;;;12.70;;
68284;SDS011;55114;52.052;5.238;2022-11-15T05:42:14;39.22;;;13.57;;
68284;SDS011;55114;52.052;5.238;2022-11-15T05:44:43;33.08;;;13.00;;
68284;SDS011;55114;52.052;5.238;2022-11-15T05:47:12;39.53;;;13.48;;
68284;SDS011;55114;52.052;5.238;2022-11-15T05:49:39;30.98;;;13.13;;
68284;SDS011;55114;52.052;5.238;2022-11-15T05:52:08;35.57;;;13.13;;
68284;SDS011;55114;52.052;5.238;2022-11-15T05:54:36;32.95;;;13.32;;
68284;SDS011;55114;52.052;5.238;2022-11-15T05:57:04;32.53;;;13.02;;
68284;SDS011;55114;52.052;5.238;2022-11-15T05:59:31;32.17;;;12.20;;
68284;SDS011;55114;52.052;5.238;2022-11-15T06:02:00;33.05;;;13.60;;
68284;SDS011;55114;52.052;5.238;2022-11-15T06:04:27;30.97;;;12.17;;
68284;SDS011;55114;52.052;5.238;2022-11-15T06:06:54;35.58;;;13.13;;
68284;SDS011;55114;52.052;5.238;2022-11-15T06:09:21;32.42;;;13.38;;
68284;SDS011;55114;52.052;5.238;2022-11-15T06:11:48;34.40;;;13.30;;
68284;SDS011;55114;52.052;5.238;2022-11-15T06:14:15;36.08;;;14.15;;
68284;SDS011;55114;52.052;5.238;2022-11-15T06:16:43;38.17;;;14.20;;
68284;SDS011;55114;52.052;5.238;2022-11-15T06:19:10;39.55;;;12.82;;
68284;SDS011;55114;52.052;5.238;2022-11-15T06:21:37;32.20;;;13.18;;
68284;SDS011;55114;52.052;5.238;2022-11-15T06:24:04;38.88;;;13.82;;
68284;SDS011;55114;52.052;5.238;2022-11-15T06:26:32;36.55;;;13.93;;
68284;SDS011;55114;52.052;5.238;2022-11-15T06:28:59;37.27;;;13.87;;
68284;SDS011;55114;52.052;5.238;2022-11-15T06:31:26;33.47;;;13.38;;
68284;SDS011;55114;52.052;5.238;2022-11-15T06:33:53;36.97;;;13.60;;
68284;SDS011;55114;52.052;5.238;2022-11-15T06:36:21;30.17;;;12.68;;
68284;SDS011;55114;52.052;5.238;2022-11-15T06:38:48;34.13;;;13.80;;
68284;SDS011;55114;52.052;5.238;2022-11-15T06:41:15;30.27;;;12.47;;
68284;SDS011;55114;52.052;5.238;2022-11-15T06:43:43;34.40;;;13.25;;
68284;SDS011;55114;52.052;5.238;2022-11-15T06:46:11;33.15;;;13.43;;
68284;SDS011;55114;52.052;5.238;2022-11-15T06:48:40;34.60;;;12.23;;
68284;SDS011;55114;52.052;5.238;2022-11-15T06:51:08;30.90;;;12.77;;
68284;SDS011;55114;52.052;5.238;2022-11-15T06:53:35;33.13;;;12.63;;
68284;SDS011;55114;52.052;5.238;2022-11-15T06:56:03;32.55;;;12.55;;
68284;SDS011;55114;52.052;5.238;2022-11-15T06:58:30;32.85;;;12.10;;
68284;SDS011;55114;52.052;5.238;2022-11-15T07:00:58;29.17;;;11.95;;
68284;SDS011;55114;52.052;5.238;2022-11-15T07:03:26;33.55;;;12.35;;
68284;SDS011;55114;52.052;5.238;2022-11-15T07:05:53;34.60;;;12.83;;
68284;SDS011;55114;52.052;5.238;2022-11-15T07:08:21;30.77;;;12.57;;
68284;SDS011;55114;52.052;5.238;2022-11-15T07:10:49;30.65;;;12.27;;
68284;SDS011;55114;52.052;5.238;2022-11-15T07:13:16;30.80;;;12.48;;
68284;SDS011;55114;52.052;5.238;2022-11-15T07:15:43;30.13;;;12.82;;
68284;SDS011;55114;52.052;5.238;2022-11-15T07:18:10;28.30;;;12.37;;
68284;SDS011;55114;52.052;5.238;2022-11-15T07:20:37;29.48;;;11.60;;
68284;SDS011;55114;52.052;5.238;2022-11-15T07:23:05;29.35;;;11.52;;
68284;SDS011;55114;52.052;5.238;2022-11-15T07:25:32;31.10;;;12.07;;
68284;SDS011;55114;52.052;5.238;2022-11-15T07:28:00;27.35;;;12.02;;
68284;SDS011;55114;52.052;5.238;2022-11-15T07:30:28;28.03;;;11.23;;
68284;SDS011;55114;52.052;5.238;2022-11-15T07:32:58;27.10;;;10.93;;
68284;SDS011;55114;52.052;5.238;2022-11-15T07:35:26;30.45;;;11.23;;
68284;SDS011;55114;52.052;5.238;2022-11-15T07:37:55;25.27;;;10.82;;
68284;SDS011;55114;52.052;5.238;2022-11-15T07:40:22;29.77;;;11.95;;
68284;SDS011;55114;52.052;5.238;2022-11-15T07:42:50;25.40;;;10.60;;
68284;SDS011;55114;52.052;5.238;2022-11-15T07:45:21;29.92;;;11.10;;
68284;SDS011;55114;52.052;5.238;2022-11-15T07:47:48;25.88;;;10.32;;
68284;SDS011;55114;52.052;5.238;2022-11-15T07:50:16;24.02;;;10.27;;
68284;SDS011;55114;52.052;5.238;2022-11-15T07:52:44;21.80;;;10.15;;
68284;SDS011;55114;52.052;5.238;2022-11-15T07:55:11;25.20;;;9.93;;
68284;SDS011;55114;52.052;5.238;2022-11-15T07:57:38;26.77;;;10.07;;
68284;SDS011;55114;52.052;5.238;2022-11-15T08:00:06;24.13;;;10.27;;
68284;SDS011;55114;52.052;5.238;2022-11-15T08:02:33;24.60;;;10.55;;
68284;SDS011;55114;52.052;5.238;2022-11-15T08:05:01;23.58;;;10.10;;
68284;SDS011;55114;52.052;5.238;2022-11-15T08:07:29;24.53;;;10.50;;
68284;SDS011;55114;52.052;5.238;2022-11-15T08:09:56;26.15;;;10.10;;
68284;SDS011;55114;52.052;5.238;2022-11-15T08:12:24;25.05;;;9.40;;
68284;SDS011;55114;52.052;5.238;2022-11-15T08:14:51;25.80;;;9.23;;
68284;SDS011;55114;52.052;5.238;2022-11-15T08:17:19;21.27;;;9.05;;
68284;SDS011;55114;52.052;5.238;2022-11-15T08:19:46;23.63;;;9.57;;
68284;SDS011;55114;52.052;5.238;2022-11-15T08:22:14;21.90;;;8.95;;
68284;SDS011;55114;52.052;5.238;2022-11-15T08:24:41;18.40;;;8.48;;
68284;SDS011;55114;52.052;5.238;2022-11-15T08:27:08;19.45;;;8.27;;
68284;SDS011;55114;52.052;5.238;2022-11-15T08:29:41;21.15;;;8.63;;
68284;SDS011;55114;52.052;5.238;2022-11-15T08:32:09;18.77;;;7.90;;
68284;SDS011;55114;52.052;5.238;2022-11-15T08:34:37;16.80;;;7.47;;
68284;SDS011;55114;52.052;5.238;2022-11-15T08:37:04;18.25;;;7.97;;
68284;SDS011;55114;52.052;5.238;2022-11-15T08:39:31;17.02;;;7.72;;
68284;SDS011;55114;52.052;5.238;2022-11-15T08:41:59;16.70;;;6.88;;
68284;SDS011;55114;52.052;5.238;2022-11-15T08:44:26;15.50;;;7.43;;
68284;SDS011;55114;52.052;5.238;2022-11-15T08:46:53;16.85;;;6.97;;
68284;SDS011;55114;52.052;5.238;2022-11-15T08:49:20;16.42;;;7.22;;
68284;SDS011;55114;52.052;5.238;2022-11-15T08:51:47;15.13;;;6.60;;
68284;SDS011;55114;52.052;5.238;2022-11-15T08:54:15;14.50;;;6.93;;
68284;SDS011;55114;52.052;5.238;2022-11-15T08:56:42;15.07;;;7.40;;
68284;SDS011;55114;52.052;5.238;2022-11-15T08:59:12;15.52;;;7.07;;
68284;SDS011;55114;52.052;5.238;2022-11-15T09:01:39;15.73;;;7.45;;
68284;SDS011;55114;52.052;5.238;2022-11-15T09:04:07;16.95;;;7.32;;
68284;SDS011;55114;52.052;5.238;2022-11-15T09:06:34;17.35;;;7.28;;
68284;SDS011;55114;52.052;5.238;2022-11-15T09:09:08;16.80;;;7.33;;
68284;SDS011;55114;52.052;5.238;2022-11-15T09:11:38;16.95;;;7.72;;
68284;SDS011;55114;52.052;5.238;2022-11-15T09:14:05;18.90;;;7.55;;
68284;SDS011;55114;52.052;5.238;2022-11-15T09:16:32;16.67;;;7.82;;
68284;SDS011;55114;52.052;5.238;2022-11-15T09:19:00;16.15;;;7.47;;
68284;SDS011;55114;52.052;5.238;2022-11-15T09:21:30;16.83;;;7.60;;
68284;SDS011;55114;52.052;5.238;2022-11-15T09:23:58;16.50;;;7.68;;
68284;SDS011;55114;52.052;5.238;2022-11-15T09:26:25;15.63;;;6.60;;
68284;SDS011;55114;52.052;5.238;2022-11-15T09:28:52;13.20;;;6.55;;
68284;SDS011;55114;52.052;5.238;2022-11-15T09:31:19;18.00;;;6.75;;
68284;SDS011;55114;52.052;5.238;2022-11-15T09:33:47;14.97;;;6.33;;
68284;SDS011;55114;52.052;5.238;2022-11-15T09:36:14;13.43;;;6.45;;
68284;SDS011;55114;52.052;5.238;2022-11-15T09:38:42;11.93;;;5.85;;
68284;SDS011;55114;52.052;5.238;2022-11-15T09:41:24;13.63;;;5.68;;
68284;SDS011;55114;52.052;5.238;2022-11-15T09:49:18;10.90;;;5.40;;
68284;SDS011;55114;52.052;5.238;2022-11-15T09:51:47;11.52;;;5.25;;
68284;SDS011;55114;52.052;5.238;2022-11-15T09:54:29;10.93;;;5.32;;
68284;SDS011;55114;52.052;5.238;2022-11-15T09:57:19;11.90;;;5.22;;
68284;SDS011;55114;52.052;5.238;2022-11-15T09:59:59;11.60;;;5.37;;
68284;SDS011;55114;52.052;5.238;2022-11-15T10:03:50;10.10;;;5.18;;
68284;SDS011;55114;52.052;5.238;2022-11-15T10:05:46;11.82;;;5.15;;
68284;SDS011;55114;52.052;5.238;2022-11-15T10:11:02;9.07;;;4.97;;
68284;SDS011;55114;52.052;5.238;2022-11-15T10:13:50;10.53;;;5.10;;
68284;SDS011;55114;52.052;5.238;2022-11-15T10:21:29;9.38;;;4.85;;
68284;SDS011;55114;52.052;5.238;2022-11-15T10:23:59;9.48;;;5.10;;
68284;SDS011;55114;52.052;5.238;2022-11-15T10:26:26;11.63;;;4.60;;
68284;SDS011;55114;52.052;5.238;2022-11-15T10:28:54;8.20;;;4.45;;
68284;SDS011;55114;52.052;5.238;2022-11-15T10:31:25;12.93;;;4.60;;
68284;SDS011;55114;52.052;5.238;2022-11-15T10:34:36;9.63;;;4.35;;
68284;SDS011;55114;52.052;5.238;2022-11-15T10:36:53;7.35;;;3.90;;
68284;SDS011;55114;52.052;5.238;2022-11-15T10:39:21;8.97;;;4.03;;
68284;SDS011;55114;52.052;5.238;2022-11-15T10:41:48;7.47;;;3.70;;
68284;SDS011;55114;52.052;5.238;2022-11-15T10:44:30;8.80;;;3.60;;
68284;SDS011;55114;52.052;5.238;2022-11-15T10:49:26;6.78;;;3.20;;
68284;SDS011;55114;52.052;5.238;2022-11-15T10:51:55;7.60;;;3.40;;
68284;SDS011;55114;52.052;5.238;2022-11-15T10:54:24;6.32;;;2.83;;
68284;SDS011;55114;52.052;5.238;2022-11-15T10:56:52;6.50;;;2.55;;
68284;SDS011;55114;52.052;5.238;2022-11-15T10:59:30;5.72;;;2.70;;
68284;SDS011;55114;52.052;5.238;2022-11-15T11:04:50;5.80;;;2.60;;
68284;SDS011;55114;52.052;5.238;2022-11-15T11:07:22;7.05;;;2.45;;
68284;SDS011;55114;52.052;5.238;2022-11-15T11:10:00;6.60;;;2.15;;
68284;SDS011;55114;52.052;5.238;2022-11-15T11:12:28;6.60;;;2.08;;
68284;SDS011;55114;52.052;5.238;2022-11-15T11:14:59;5.85;;;2.03;;
68284;SDS011;55114;52.052;5.238;2022-11-15T11:28:19;4.50;;;1.80;;
68284;SDS011;55114;52.052;5.238;2022-11-15T11:33:17;6.72;;;1.70;;
68284;SDS011;55114;52.052;5.238;2022-11-15T11:48:44;5.95;;;1.35;;
68284;SDS011;55114;52.052;5.238;2022-11-15T11:53:59;5.97;;;1.65;;
68284;SDS011;55114;52.052;5.238;2022-11-15T11:56:29;5.60;;;1.43;;
68284;SDS011;55114;52.052;5.238;2022-11-15T11:59:05;5.00;;;1.30;;
68284;SDS011;55114;52.052;5.238;2022-11-15T12:01:34;4.22;;;1.35;;
68284;SDS011;55114;52.052;5.238;2022-11-15T12:04:05;4.95;;;1.17;;
68284;SDS011;55114;52.052;5.238;2022-11-15T12:06:42;4.72;;;1.20;;
68284;SDS011;55114;52.052;5.238;2022-11-15T12:09:14;2.77;;;1.00;;
68284;SDS011;55114;52.052;5.238;2022-11-15T12:12:02;4.57;;;0.90;;
68284;SDS011;55114;52.052;5.238;2022-11-15T12:14:38;4.68;;;1.00;;
68284;SDS011;55114;52.052;5.238;2022-11-15T12:17:10;4.10;;;1.10;;
68284;SDS011;55114;52.052;5.238;2022-11-15T12:19:38;7.25;;;1.20;;
68284;SDS011;55114;52.052;5.238;2022-11-15T12:22:12;4.10;;;0.80;;
68284;SDS011;55114;52.052;5.238;2022-11-15T12:24:41;4.40;;;1.10;;
68284;SDS011;55114;52.052;5.238;2022-11-15T12:27:19;4.63;;;1.10;;
68284;SDS011;55114;52.052;5.238;2022-11-15T12:29:56;8.48;;;1.48;;
68284;SDS011;55114;52.052;5.238;2022-11-15T12:32:26;4.82;;;1.10;;
68284;SDS011;55114;52.052;5.238;2022-11-15T12:34:54;3.93;;;0.90;;
68284;SDS011;55114;52.052;5.238;2022-11-15T12:37:32;4.57;;;1.10;;
68284;SDS011;55114;52.052;5.238;2022-11-15T12:42:56;3.95;;;1.13;;
68284;SDS011;55114;52.052;5.238;2022-11-15T12:45:25;2.67;;;0.80;;
68284;SDS011;55114;52.052;5.238;2022-11-15T12:47:52;4.67;;;1.00;;
68284;SDS011;55114;52.052;5.238;2022-11-15T12:58:51;5.57;;;1.50;;
68284;SDS011;55114;52.052;5.238;2022-11-15T13:06:41;6.75;;;1.10;;
68284;SDS011;55114;52.052;5.238;2022-11-15T13:11:55;5.25;;;1.00;;
68284;SDS011;55114;52.052;5.238;2022-11-15T13:14:38;6.37;;;1.57;;
68284;SDS011;55114;52.052;5.238;2022-11-15T13:17:23;5.40;;;1.05;;
68284;SDS011;55114;52.052;5.238;2022-11-15T13:19:56;3.88;;;1.05;;
68284;SDS011;55114;52.052;5.238;2022-11-15T13:22:25;6.63;;;1.20;;
68284;SDS011;55114;52.052;5.238;2022-11-15T13:25:31;4.95;;;1.20;;
68284;SDS011;55114;52.052;5.238;2022-11-15T13:30:36;4.78;;;1.10;;
68284;SDS011;55114;52.052;5.238;2022-11-15T13:33:13;5.18;;;1.38;;
68284;SDS011;55114;52.052;5.238;2022-11-15T13:35:45;5.45;;;1.50;;
68284;SDS011;55114;52.052;5.238;2022-11-15T13:38:25;5.65;;;1.40;;
68284;SDS011;55114;52.052;5.238;2022-11-15T13:40:53;5.07;;;1.27;;
68284;SDS011;55114;52.052;5.238;2022-11-15T13:46:09;4.75;;;1.40;;
68284;SDS011;55114;52.052;5.238;2022-11-15T13:48:37;6.18;;;1.70;;
68284;SDS011;55114;52.052;5.238;2022-11-15T13:51:07;3.47;;;1.27;;
68284;SDS011;55114;52.052;5.238;2022-11-15T13:53:36;6.03;;;1.37;;
68284;SDS011;55114;52.052;5.238;2022-11-15T13:56:05;4.40;;;1.30;;
68284;SDS011;55114;52.052;5.238;2022-11-15T13:58:32;5.55;;;1.42;;
68284;SDS011;55114;52.052;5.238;2022-11-15T14:01:01;6.43;;;1.60;;
68284;SDS011;55114;52.052;5.238;2022-11-15T14:03:32;4.30;;;1.35;;
68284;SDS011;55114;52.052;5.238;2022-11-15T14:06:11;4.90;;;1.17;;
68284;SDS011;55114;52.052;5.238;2022-11-15T14:08:41;7.05;;;1.88;;
68284;SDS011;55114;52.052;5.238;2022-11-15T14:11:13;5.68;;;1.70;;
68284;SDS011;55114;52.052;5.238;2022-11-15T14:14:02;9.00;;;1.80;;
68284;SDS011;55114;52.052;5.238;2022-11-15T14:16:33;4.95;;;1.50;;
68284;SDS011;55114;52.052;5.238;2022-11-15T14:19:02;6.17;;;1.30;;
68284;SDS011;55114;52.052;5.238;2022-11-15T14:21:29;4.90;;;1.15;;
68284;SDS011;55114;52.052;5.238;2022-11-15T14:26:42;5.25;;;1.60;;
68284;SDS011;55114;52.052;5.238;2022-11-15T14:29:25;4.55;;;1.60;;
68284;SDS011;55114;52.052;5.238;2022-11-15T14:31:53;4.57;;;1.67;;
68284;SDS011;55114;52.052;5.238;2022-11-15T14:34:21;5.40;;;1.67;;
68284;SDS011;55114;52.052;5.238;2022-11-15T14:36:48;5.53;;;1.60;;
68284;SDS011;55114;52.052;5.238;2022-11-15T14:39:15;5.90;;;1.60;;
68284;SDS011;55114;52.052;5.238;2022-11-15T14:41:43;5.40;;;2.03;;
68284;SDS011;55114;52.052;5.238;2022-11-15T14:44:10;4.10;;;1.40;;
68284;SDS011;55114;52.052;5.238;2022-11-15T14:46:38;3.55;;;1.48;;
68284;SDS011;55114;52.052;5.238;2022-11-15T14:49:05;5.60;;;1.60;;
68284;SDS011;55114;52.052;5.238;2022-11-15T14:51:32;6.72;;;1.73;;
68284;SDS011;55114;52.052;5.238;2022-11-15T14:54:00;7.30;;;1.73;;
68284;SDS011;55114;52.052;5.238;2022-11-15T14:56:27;5.13;;;1.40;;
68284;SDS011;55114;52.052;5.238;2022-11-15T14:58:54;4.03;;;1.25;;
68284;SDS011;55114;52.052;5.238;2022-11-15T15:01:25;3.80;;;1.50;;
68284;SDS011;55114;52.052;5.238;2022-11-15T15:03:53;4.63;;;1.75;;
68284;SDS011;55114;52.052;5.238;2022-11-15T15:06:23;5.47;;;1.77;;
68284;SDS011;55114;52.052;5.238;2022-11-15T15:08:50;5.30;;;1.70;;
68284;SDS011;55114;52.052;5.238;2022-11-15T15:11:31;3.95;;;1.50;;
68284;SDS011;55114;52.052;5.238;2022-11-15T15:13:58;6.15;;;1.60;;
68284;SDS011;55114;52.052;5.238;2022-11-15T15:16:27;5.80;;;1.60;;
68284;SDS011;55114;52.052;5.238;2022-11-15T15:18:54;6.13;;;1.70;;
68284;SDS011;55114;52.052;5.238;2022-11-15T15:23:48;5.90;;;1.60;;
68284;SDS011;55114;52.052;5.238;2022-11-15T15:26:15;6.18;;;1.50;;
68284;SDS011;55114;52.052;5.238;2022-11-15T15:28:42;6.70;;;1.45;;
68284;SDS011;55114;52.052;5.238;2022-11-15T15:31:10;5.13;;;1.30;;
68284;SDS011;55114;52.052;5.238;2022-11-15T15:33:37;5.50;;;1.30;;
68284;SDS011;55114;52.052;5.238;2022-11-15T15:36:04;6.85;;;1.50;;
68284;SDS011;55114;52.052;5.238;2022-11-15T15:38:31;4.53;;;1.10;;
68284;SDS011;55114;52.052;5.238;2022-11-15T15:40:59;3.35;;;0.93;;
68284;SDS011;55114;52.052;5.238;2022-11-15T15:43:28;3.90;;;1.30;;
68284;SDS011;55114;52.052;5.238;2022-11-15T15:45:55;4.73;;;1.23;;
68284;SDS011;55114;52.052;5.238;2022-11-15T15:48:23;5.50;;;1.20;;
68284;SDS011;55114;52.052;5.238;2022-11-15T15:50:50;5.50;;;1.40;;
68284;SDS011;55114;52.052;5.238;2022-11-15T15:53:17;4.30;;;1.20;;
68284;SDS011;55114;52.052;5.238;2022-11-15T15:55:44;7.13;;;1.25;;
68284;SDS011;55114;52.052;5.238;2022-11-15T15:58:11;4.87;;;1.00;;
68284;SDS011;55114;52.052;5.238;2022-11-15T16:00:38;3.42;;;1.17;;
68284;SDS011;55114;52.052;5.238;2022-11-15T16:03:06;3.92;;;1.10;;
68284;SDS011;55114;52.052;5.238;2022-11-15T16:05:33;3.65;;;1.00;;
68284;SDS011;55114;52.052;5.238;2022-11-15T16:08:00;5.35;;;1.40;;
68284;SDS011;55114;52.052;5.238;2022-11-15T16:10:29;2.67;;;0.87;;
68284;SDS011;55114;52.052;5.238;2022-11-15T16:12:57;3.33;;;0.95;;
68284;SDS011;55114;52.052;5.238;2022-11-15T16:15:29;4.70;;;1.20;;
68284;SDS011;55114;52.052;5.238;2022-11-15T16:17:57;2.88;;;0.98;;
68284;SDS011;55114;52.052;5.238;2022-11-15T16:20:35;2.60;;;1.00;;
68284;SDS011;55114;52.052;5.238;2022-11-15T16:23:03;3.23;;;0.87;;
68284;SDS011;55114;52.052;5.238;2022-11-15T16:25:41;3.80;;;1.20;;
68284;SDS011;55114;52.052;5.238;2022-11-15T16:28:19;3.92;;;1.30;;